createdAt,value
2023-01-05T00:00:59.685Z,1001.94
2023-01-05T00:01:59.718Z,1001.81
2023-01-05T00:02:59.673Z,1001.88
2023-01-05T00:03:59.682Z,1001.82
2023-01-05T00:04:59.643Z,1001.87
2023-01-05T00:05:59.650Z,1001.81
2023-01-05T00:06:59.618Z,1001.81
2023-01-05T00:07:59.603Z,1001.84
2023-01-05T00:08:59.587Z,1001.82
2023-01-05T00:09:59.581Z,1001.83
2023-01-05T00:10:59.564Z,1001.83
2023-01-05T00:11:59.564Z,1001.83
2023-01-05T00:12:59.550Z,1001.83
2023-01-05T00:13:59.537Z,1001.85
2023-01-05T00:14:59.520Z,1001.88
2023-01-05T00:15:59.515Z,1001.83
2023-01-05T00:16:59.568Z,1001.80
2023-01-05T00:17:59.491Z,1001.81
2023-01-05T00:18:59.475Z,1001.88
2023-01-05T00:19:59.472Z,1001.88
2023-01-05T00:20:59.475Z,1001.81
2023-01-05T00:21:59.460Z,1001.84
2023-01-05T00:22:59.458Z,1001.93
2023-01-05T00:23:59.429Z,1001.87
2023-01-05T00:24:59.406Z,1001.88
2023-01-05T00:25:59.402Z,1001.84
2023-01-05T00:26:59.380Z,1001.83
2023-01-05T00:27:59.379Z,1001.88
2023-01-05T00:28:59.373Z,1001.88
2023-01-05T00:29:59.345Z,1001.88
2023-01-05T00:30:59.341Z,1001.87
2023-01-05T00:31:59.396Z,1001.93
2023-01-05T00:32:59.332Z,1002.00
2023-01-05T00:33:59.311Z,1001.89
2023-01-05T00:34:59.287Z,1001.94
2023-01-05T00:35:59.281Z,1001.96
2023-01-05T00:36:59.274Z,1001.87
2023-01-05T00:37:59.283Z,1001.95
2023-01-05T00:38:59.255Z,1002.02
2023-01-05T00:39:59.236Z,1001.83
2023-01-05T00:40:59.229Z,1001.88
2023-01-05T00:41:59.217Z,1001.93
2023-01-05T00:42:59.204Z,1001.90
2023-01-05T00:43:59.288Z,1001.86
2023-01-05T00:44:59.181Z,1001.90
2023-01-05T00:45:59.210Z,1001.83
2023-01-05T00:46:59.160Z,1001.87
2023-01-05T00:47:59.143Z,1001.87
2023-01-05T00:48:59.140Z,1001.87
2023-01-05T00:49:59.118Z,1001.87
2023-01-05T00:50:59.105Z,1001.79
2023-01-05T00:51:59.105Z,1001.79
2023-01-05T00:52:59.090Z,1001.84
2023-01-05T00:53:59.099Z,1001.82
2023-01-05T00:54:59.062Z,1001.81
2023-01-05T00:55:59.082Z,1001.83
2023-01-05T00:56:59.043Z,1001.89
2023-01-05T00:57:59.026Z,1001.99
2023-01-05T00:58:59.025Z,1001.89
2023-01-05T00:59:59.006Z,1001.88
2023-01-05T01:00:59.031Z,1001.93
2023-01-05T01:01:59.118Z,1001.81
2023-01-05T01:02:59.014Z,1001.79
2023-01-05T01:03:58.962Z,1001.82
2023-01-05T01:04:58.958Z,1001.85
2023-01-05T01:05:58.940Z,1001.84
2023-01-05T01:06:58.928Z,1001.81
2023-01-05T01:07:58.915Z,1001.83
2023-01-05T01:08:58.899Z,1001.80
2023-01-05T01:09:58.921Z,1001.84
2023-01-05T01:10:58.886Z,1001.80
2023-01-05T01:11:58.865Z,1001.89
2023-01-05T01:12:58.870Z,1001.84
2023-01-05T01:13:58.848Z,1001.85
2023-01-05T01:14:58.842Z,1001.92
2023-01-05T01:15:58.831Z,1001.89
2023-01-05T01:16:58.877Z,1001.83
2023-01-05T01:17:58.804Z,1001.82
2023-01-05T01:19:01.720Z,1001.86
2023-01-05T01:19:58.775Z,1001.85
2023-01-05T01:20:58.777Z,1001.94
2023-01-05T01:21:58.752Z,1001.91
2023-01-05T01:22:58.739Z,1001.77
2023-01-05T01:23:58.728Z,1001.82
2023-01-05T01:24:58.722Z,1001.94
2023-01-05T01:25:58.738Z,1001.86
2023-01-05T01:26:58.694Z,1001.86
2023-01-05T01:27:58.689Z,1001.85
2023-01-05T01:28:58.678Z,1001.85
2023-01-05T01:29:58.669Z,1001.86
2023-01-05T01:30:58.692Z,1001.90
2023-01-05T01:31:58.644Z,1001.86
2023-01-05T01:32:58.630Z,1001.88
2023-01-05T01:33:58.618Z,1002.00
2023-01-05T01:34:58.608Z,1001.95
2023-01-05T01:35:58.597Z,1001.90
2023-01-05T01:36:58.583Z,1001.90
2023-01-05T01:37:58.567Z,1001.91
2023-01-05T01:38:58.556Z,1001.91
2023-01-05T01:39:58.563Z,1001.87
2023-01-05T01:40:58.541Z,1001.87
2023-01-05T01:41:58.555Z,1001.89
2023-01-05T01:42:58.513Z,1001.90
2023-01-05T01:43:58.534Z,1001.88
2023-01-05T01:44:58.513Z,1001.85
2023-01-05T01:45:58.537Z,1001.85
2023-01-05T01:46:58.468Z,1001.96
2023-01-05T01:47:58.465Z,1002.03
2023-01-05T01:48:58.449Z,1001.96
2023-01-05T01:49:58.451Z,1001.93
2023-01-05T01:51:02.107Z,1002.02
2023-01-05T01:51:58.410Z,1001.88
2023-01-05T01:52:58.394Z,1001.91
2023-01-05T01:53:58.388Z,1001.97
2023-01-05T01:54:58.382Z,1001.93
2023-01-05T01:55:58.379Z,1001.93
2023-01-05T01:56:58.353Z,1001.88
2023-01-05T01:57:58.375Z,1001.95
2023-01-05T01:58:58.332Z,1001.93
2023-01-05T01:59:58.326Z,1001.81
2023-01-05T02:00:58.333Z,1001.86
2023-01-05T02:01:58.457Z,1001.87
2023-01-05T02:02:58.287Z,1001.91
2023-01-05T02:03:58.277Z,1001.92
2023-01-05T02:04:58.349Z,1001.95
2023-01-05T02:05:58.252Z,1001.85
2023-01-05T02:06:58.240Z,1001.88
2023-01-05T02:07:58.233Z,1001.84
2023-01-05T02:08:58.218Z,1001.83
2023-01-05T02:09:58.211Z,1001.94
2023-01-05T02:10:58.194Z,1001.95
2023-01-05T02:11:58.181Z,1001.91
2023-01-05T02:12:58.172Z,1001.84
2023-01-05T02:13:58.190Z,1001.81
2023-01-05T02:14:58.152Z,1001.85
2023-01-05T02:15:58.132Z,1001.75
2023-01-05T02:16:58.189Z,1001.89
2023-01-05T02:17:58.118Z,1001.80
2023-01-05T02:18:58.104Z,1001.83
2023-01-05T02:19:58.088Z,1001.87
2023-01-05T02:20:58.079Z,1001.89
2023-01-05T02:21:58.072Z,1001.83
2023-01-05T02:22:58.062Z,1001.79
2023-01-05T02:23:58.051Z,1001.69
2023-01-05T02:24:58.034Z,1001.79
2023-01-05T02:25:58.031Z,1001.76
2023-01-05T02:26:58.015Z,1001.74
2023-01-05T02:27:58.006Z,1001.74
2023-01-05T02:28:59.982Z,1001.69
2023-01-05T02:29:58.005Z,1001.67
2023-01-05T02:30:57.973Z,1001.71
2023-01-05T02:31:57.960Z,1001.67
2023-01-05T02:32:57.940Z,1001.59
2023-01-05T02:33:57.937Z,1001.64
2023-01-05T02:34:57.925Z,1001.69
2023-01-05T02:35:57.917Z,1001.67
2023-01-05T02:36:57.891Z,1001.66
2023-01-05T02:37:57.888Z,1001.67
2023-01-05T02:38:57.876Z,1001.77
2023-01-05T02:39:57.875Z,1001.69
2023-01-05T02:40:57.855Z,1001.70
2023-01-05T02:41:57.845Z,1001.67
2023-01-05T02:42:57.829Z,1001.61
2023-01-05T02:43:57.818Z,1001.65
2023-01-05T02:44:57.810Z,1001.72
2023-01-05T02:45:57.866Z,1001.59
2023-01-05T02:46:57.784Z,1001.68
2023-01-05T02:47:57.783Z,1001.64
2023-01-05T02:48:57.762Z,1001.59
2023-01-05T02:49:57.760Z,1001.64
2023-01-05T02:50:57.774Z,1001.63
2023-01-05T02:51:57.725Z,1001.61
2023-01-05T02:52:57.716Z,1001.68
2023-01-05T02:53:57.712Z,1001.62
2023-01-05T02:54:57.694Z,1001.72
2023-01-05T02:55:57.687Z,1001.63
2023-01-05T02:56:57.666Z,1001.70
2023-01-05T02:57:57.673Z,1001.64
2023-01-05T02:58:57.640Z,1001.66
2023-01-05T02:59:57.649Z,1001.65
2023-01-05T03:00:57.704Z,1001.71
2023-01-05T03:01:57.894Z,1001.68
2023-01-05T03:02:57.866Z,1001.69
2023-01-05T03:03:57.605Z,1001.75
2023-01-05T03:04:57.587Z,1001.63
2023-01-05T03:05:57.595Z,1001.71
2023-01-05T03:06:57.559Z,1001.67
2023-01-05T03:07:57.535Z,1001.81
2023-01-05T03:08:57.547Z,1001.72
2023-01-05T03:09:57.524Z,1001.68
2023-01-05T03:10:57.513Z,1001.76
2023-01-05T03:11:57.519Z,1001.71
2023-01-05T03:12:57.485Z,1001.79
2023-01-05T03:13:57.476Z,1001.85
2023-01-05T03:14:57.473Z,1001.76
2023-01-05T03:15:57.493Z,1001.71
2023-01-05T03:16:57.464Z,1001.75
2023-01-05T03:17:57.453Z,1001.72
2023-01-05T03:18:57.415Z,1001.79
2023-01-05T03:19:57.398Z,1001.79
2023-01-05T03:20:57.428Z,1001.72
2023-01-05T03:21:57.388Z,1001.75
2023-01-05T03:22:57.377Z,1001.77
2023-01-05T03:23:57.359Z,1001.72
2023-01-05T03:24:57.346Z,1001.79
2023-01-05T03:25:57.339Z,1001.77
2023-01-05T03:26:57.323Z,1001.75
2023-01-05T03:27:57.315Z,1001.77
2023-01-05T03:28:57.298Z,1001.89
2023-01-05T03:29:57.286Z,1001.85
2023-01-05T03:30:57.386Z,1001.74
2023-01-05T03:31:57.266Z,1001.71
2023-01-05T03:32:57.250Z,1001.73
2023-01-05T03:33:57.262Z,1001.69
2023-01-05T03:34:57.232Z,1001.79
2023-01-05T03:35:57.241Z,1001.79
2023-01-05T03:36:57.210Z,1001.80
2023-01-05T03:37:57.203Z,1001.64
2023-01-05T03:38:57.183Z,1001.68
2023-01-05T03:39:57.189Z,1001.74
2023-01-05T03:40:57.158Z,1001.71
2023-01-05T03:41:57.155Z,1001.81
2023-01-05T03:42:57.139Z,1001.71
2023-01-05T03:43:57.124Z,1001.72
2023-01-05T03:44:57.117Z,1001.70
2023-01-05T03:45:57.183Z,1001.78
2023-01-05T03:46:57.117Z,1001.74
2023-01-05T03:47:57.075Z,1001.81
2023-01-05T03:48:57.066Z,1001.71
2023-01-05T03:49:57.081Z,1001.82
2023-01-05T03:50:57.046Z,1001.81
2023-01-05T03:51:57.036Z,1001.80
2023-01-05T03:52:57.022Z,1001.81
2023-01-05T03:53:57.012Z,1001.81
2023-01-05T03:54:57.000Z,1001.71
2023-01-05T03:55:57.003Z,1001.82
2023-01-05T03:56:57.015Z,1001.80
2023-01-05T03:57:56.976Z,1001.76
2023-01-05T03:58:56.957Z,1001.75
2023-01-05T03:59:56.958Z,1001.85
2023-01-05T04:00:56.937Z,1001.87
2023-01-05T04:01:57.126Z,1001.91
2023-01-05T04:02:57.070Z,1001.88
2023-01-05T04:03:56.987Z,1001.81
2023-01-05T04:04:56.884Z,1001.86
2023-01-05T04:05:56.895Z,1001.90
2023-01-05T04:06:56.864Z,1001.92
2023-01-05T04:07:56.859Z,1001.84
2023-01-05T04:08:56.837Z,1001.85
2023-01-05T04:09:56.842Z,1001.93
2023-01-05T04:10:56.817Z,1001.85
2023-01-05T04:11:56.807Z,1001.90
2023-01-05T04:12:56.793Z,1001.91
2023-01-05T04:13:56.791Z,1001.95
2023-01-05T04:14:56.772Z,1002.03
2023-01-05T04:15:56.796Z,1002.05
2023-01-05T04:16:56.744Z,1002.01
2023-01-05T04:17:56.737Z,1001.98
2023-01-05T04:18:56.730Z,1002.06
2023-01-05T04:19:56.718Z,1001.99
2023-01-05T04:20:56.706Z,1002.11
2023-01-05T04:21:56.716Z,1002.13
2023-01-05T04:22:56.684Z,1002.12
2023-01-05T04:23:56.678Z,1002.15
2023-01-05T04:24:56.665Z,1002.12
2023-01-05T04:25:56.648Z,1002.15
2023-01-05T04:26:56.637Z,1002.24
2023-01-05T04:27:56.620Z,1002.21
2023-01-05T04:28:56.611Z,1002.16
2023-01-05T04:29:56.618Z,1002.20
2023-01-05T04:30:56.644Z,1002.21
2023-01-05T04:31:56.616Z,1002.12
2023-01-05T04:32:56.562Z,1002.28
2023-01-05T04:33:56.557Z,1002.18
2023-01-05T04:34:56.547Z,1002.29
2023-01-05T04:35:56.535Z,1002.24
2023-01-05T04:36:58.521Z,1002.24
2023-01-05T04:37:56.536Z,1002.24
2023-01-05T04:38:56.503Z,1002.17
2023-01-05T04:39:56.487Z,1002.22
2023-01-05T04:40:56.471Z,1002.26
2023-01-05T04:41:56.471Z,1002.22
2023-01-05T04:42:56.464Z,1002.25
2023-01-05T04:43:56.441Z,1002.31
2023-01-05T04:44:56.429Z,1002.26
2023-01-05T04:45:56.423Z,1002.24
2023-01-05T04:46:56.451Z,1002.28
2023-01-05T04:47:56.391Z,1002.38
2023-01-05T04:48:56.396Z,1002.33
2023-01-05T04:49:56.364Z,1002.32
2023-01-05T04:50:56.371Z,1002.34
2023-01-05T04:51:56.373Z,1002.29
2023-01-05T04:52:56.334Z,1002.36
2023-01-05T04:53:56.357Z,1002.41
2023-01-05T04:54:56.322Z,1002.47
2023-01-05T04:55:56.305Z,1002.50
2023-01-05T04:56:56.303Z,1002.42
2023-01-05T04:57:56.275Z,1002.45
2023-01-05T04:58:56.273Z,1002.55
2023-01-05T04:59:56.264Z,1002.49
2023-01-05T05:00:56.251Z,1002.47
2023-01-05T05:01:56.395Z,1002.43
2023-01-05T05:02:56.335Z,1002.52
2023-01-05T05:03:56.280Z,1002.45
2023-01-05T05:04:56.200Z,1002.49
2023-01-05T05:05:56.191Z,1002.40
2023-01-05T05:06:56.173Z,1002.52
2023-01-05T05:07:56.175Z,1002.48
2023-01-05T05:08:56.160Z,1002.47
2023-01-05T05:09:56.190Z,1002.55
2023-01-05T05:10:56.165Z,1002.49
2023-01-05T05:11:56.131Z,1002.53
2023-01-05T05:12:56.121Z,1002.60
2023-01-05T05:13:56.097Z,1002.50
2023-01-05T05:14:56.086Z,1002.58
2023-01-05T05:15:56.159Z,1002.63
2023-01-05T05:16:56.063Z,1002.55
2023-01-05T05:17:56.049Z,1002.60
2023-01-05T05:18:56.049Z,1002.57
2023-01-05T05:19:56.037Z,1002.57
2023-01-05T05:20:56.018Z,1002.61
2023-01-05T05:21:56.022Z,1002.60
2023-01-05T05:22:55.993Z,1002.65
2023-01-05T05:23:55.975Z,1002.62
2023-01-05T05:24:55.963Z,1002.65
2023-01-05T05:25:55.991Z,1002.68
2023-01-05T05:26:55.949Z,1002.71
2023-01-05T05:27:55.941Z,1002.76
2023-01-05T05:28:55.927Z,1002.65
2023-01-05T05:29:55.906Z,1002.61
2023-01-05T05:30:55.934Z,1002.64
2023-01-05T05:31:55.894Z,1002.60
2023-01-05T05:32:55.873Z,1002.53
2023-01-05T05:33:55.863Z,1002.55
2023-01-05T05:34:55.856Z,1002.59
2023-01-05T05:35:55.851Z,1002.57
2023-01-05T05:36:55.834Z,1002.59
2023-01-05T05:37:56.913Z,1002.59
2023-01-05T05:38:55.806Z,1002.63
2023-01-05T05:39:55.805Z,1002.60
2023-01-05T05:40:55.787Z,1002.63
2023-01-05T05:41:55.853Z,1002.59
2023-01-05T05:42:55.770Z,1002.60
2023-01-05T05:43:55.769Z,1002.62
2023-01-05T05:44:55.736Z,1002.60
2023-01-05T05:45:55.732Z,1002.58
2023-01-05T05:46:55.740Z,1002.57
2023-01-05T05:47:55.708Z,1002.60
2023-01-05T05:48:55.696Z,1002.57
2023-01-05T05:49:55.676Z,1002.55
2023-01-05T05:50:55.689Z,1002.52
2023-01-05T05:51:55.671Z,1002.53
2023-01-05T05:52:55.643Z,1002.56
2023-01-05T05:53:55.639Z,1002.58
2023-01-05T05:54:55.624Z,1002.52
2023-01-05T05:55:55.612Z,1002.53
2023-01-05T05:56:55.604Z,1002.42
2023-01-05T05:57:55.613Z,1002.57
2023-01-05T05:59:01.071Z,1002.59
2023-01-05T05:59:55.568Z,1002.64
2023-01-05T06:00:55.563Z,1002.65
2023-01-05T06:01:55.662Z,1002.68
2023-01-05T06:02:55.705Z,1002.75
2023-01-05T06:03:55.637Z,1002.72
2023-01-05T06:04:55.511Z,1002.86
2023-01-05T06:05:55.527Z,1003.07
2023-01-05T06:06:55.486Z,1003.14
2023-01-05T06:07:55.477Z,1003.06
2023-01-05T06:08:55.460Z,1003.05
2023-01-05T06:09:55.455Z,1003.06
2023-01-05T06:10:55.436Z,1003.20
2023-01-05T06:11:55.424Z,1003.05
2023-01-05T06:12:55.434Z,1003.11
2023-01-05T06:13:55.421Z,1003.13
2023-01-05T06:14:55.396Z,1003.06
2023-01-05T06:15:55.497Z,1003.07
2023-01-05T06:16:55.373Z,1002.92
2023-01-05T06:17:55.360Z,1002.93
2023-01-05T06:18:55.351Z,1002.97
2023-01-05T06:19:55.336Z,1003.02
2023-01-05T06:21:01.370Z,1003.01
2023-01-05T06:21:55.318Z,1002.98
2023-01-05T06:22:55.304Z,1003.06
2023-01-05T06:23:55.293Z,1003.15
2023-01-05T06:24:55.284Z,1003.20
2023-01-05T06:25:55.262Z,1003.20
2023-01-05T06:26:55.276Z,1003.22
2023-01-05T06:27:55.245Z,1003.21
2023-01-05T06:28:55.240Z,1003.24
2023-01-05T06:29:55.240Z,1003.21
2023-01-05T06:30:55.218Z,1003.19
2023-01-05T06:31:55.237Z,1003.19
2023-01-05T06:32:55.190Z,1003.20
2023-01-05T06:33:55.177Z,1003.27
2023-01-05T06:34:55.168Z,1003.23
2023-01-05T06:35:55.155Z,1003.28
2023-01-05T06:36:59.290Z,1003.23
2023-01-05T06:37:55.142Z,1003.20
2023-01-05T06:38:55.121Z,1003.22
2023-01-05T06:39:55.108Z,1003.17
2023-01-05T06:40:55.096Z,1003.25
2023-01-05T06:41:55.091Z,1003.33
2023-01-05T06:42:55.075Z,1003.26
2023-01-05T06:43:55.072Z,1003.32
2023-01-05T06:44:55.051Z,1003.20
2023-01-05T06:45:55.093Z,1003.25
2023-01-05T06:46:55.036Z,1003.32
2023-01-05T06:47:55.020Z,1003.37
2023-01-05T06:48:55.004Z,1003.31
2023-01-05T06:49:54.997Z,1003.29
2023-01-05T06:50:54.978Z,1003.35
2023-01-05T06:51:54.982Z,1003.49
2023-01-05T06:52:54.972Z,1003.42
2023-01-05T06:53:54.948Z,1003.40
2023-01-05T06:54:54.929Z,1003.51
2023-01-05T06:55:54.925Z,1003.51
2023-01-05T06:56:54.934Z,1003.53
2023-01-05T06:58:00.469Z,1003.48
2023-01-05T06:58:54.887Z,1003.53
2023-01-05T06:59:54.882Z,1003.55
2023-01-05T07:00:55.015Z,1003.58
2023-01-05T07:01:55.060Z,1003.56
2023-01-05T07:02:54.839Z,1003.49
2023-01-05T07:03:54.890Z,1003.60
2023-01-05T07:04:54.824Z,1003.56
2023-01-05T07:05:54.807Z,1003.59
2023-01-05T07:06:54.796Z,1003.54
2023-01-05T07:07:54.787Z,1003.56
2023-01-05T07:08:54.778Z,1003.66
2023-01-05T07:09:54.757Z,1003.56
2023-01-05T07:10:54.780Z,1003.59
2023-01-05T07:11:54.757Z,1003.60
2023-01-05T07:12:54.751Z,1003.59
2023-01-05T07:13:54.730Z,1003.56
2023-01-05T07:14:57.673Z,1003.62
2023-01-05T07:15:54.789Z,1003.67
2023-01-05T07:16:54.746Z,1003.60
2023-01-05T07:17:54.699Z,1003.58
2023-01-05T07:18:54.671Z,1003.73
2023-01-05T07:19:54.641Z,1003.65
2023-01-05T07:20:54.639Z,1003.70
2023-01-05T07:21:56.885Z,1003.72
2023-01-05T07:22:56.619Z,1003.77
2023-01-05T07:23:54.603Z,1003.66
2023-01-05T07:24:54.590Z,1003.71
2023-01-05T07:25:54.581Z,1003.76
2023-01-05T07:26:54.567Z,1003.81
2023-01-05T07:27:54.558Z,1003.74
2023-01-05T07:28:54.539Z,1003.77
2023-01-05T07:29:54.535Z,1003.83
2023-01-05T07:30:54.520Z,1003.67
2023-01-05T07:31:54.545Z,1003.81
2023-01-05T07:32:54.504Z,1003.79
2023-01-05T07:33:54.516Z,1003.92
2023-01-05T07:34:56.221Z,1003.77
2023-01-05T07:35:54.467Z,1003.82
2023-01-05T07:36:54.453Z,1003.92
2023-01-05T07:37:54.435Z,1003.92
2023-01-05T07:38:56.726Z,1003.90
2023-01-05T07:39:54.455Z,1003.94
2023-01-05T07:40:54.405Z,1003.97
2023-01-05T07:41:54.406Z,1003.98
2023-01-05T07:42:54.415Z,1004.01
2023-01-05T07:43:54.368Z,1004.07
2023-01-05T07:44:54.362Z,1003.99
2023-01-05T07:45:54.404Z,1004.07
2023-01-05T07:46:54.341Z,1004.06
2023-01-05T07:47:54.331Z,1004.06
2023-01-05T07:48:54.317Z,1004.09
2023-01-05T07:49:54.341Z,1004.11
2023-01-05T07:50:54.296Z,1004.14
2023-01-05T07:51:54.299Z,1004.18
2023-01-05T07:52:54.293Z,1004.20
2023-01-05T07:53:54.260Z,1004.20
2023-01-05T07:54:54.250Z,1004.19
2023-01-05T07:55:54.231Z,1004.24
2023-01-05T07:56:54.228Z,1004.19
2023-01-05T07:57:54.226Z,1004.20
2023-01-05T07:58:54.223Z,1004.23
2023-01-05T07:59:54.186Z,1004.30
2023-01-05T08:00:54.258Z,1004.30
2023-01-05T08:01:54.441Z,1004.28
2023-01-05T08:02:54.162Z,1004.30
2023-01-05T08:03:54.237Z,1004.34
2023-01-05T08:04:54.142Z,1004.26
2023-01-05T08:05:54.138Z,1004.44
2023-01-05T08:06:54.111Z,1004.39
2023-01-05T08:07:54.111Z,1004.40
2023-01-05T08:08:54.089Z,1004.55
2023-01-05T08:09:54.088Z,1004.44
2023-01-05T08:10:54.061Z,1004.45
2023-01-05T08:11:54.068Z,1004.53
2023-01-05T08:12:54.053Z,1004.50
2023-01-05T08:13:54.041Z,1004.57
2023-01-05T08:14:54.022Z,1004.49
2023-01-05T08:15:54.005Z,1004.62
2023-01-05T08:16:54.113Z,1004.60
2023-01-05T08:17:54.008Z,1004.66
2023-01-05T08:18:53.993Z,1004.60
2023-01-05T08:19:54.018Z,1004.63
2023-01-05T08:20:53.986Z,1004.74
2023-01-05T08:21:54.010Z,1004.72
2023-01-05T08:22:53.946Z,1004.72
2023-01-05T08:23:53.911Z,1004.71
2023-01-05T08:24:53.917Z,1004.72
2023-01-05T08:25:53.900Z,1004.74
2023-01-05T08:26:53.911Z,1004.74
2023-01-05T08:27:53.875Z,1004.67
2023-01-05T08:28:53.856Z,1004.79
2023-01-05T08:29:53.850Z,1004.79
2023-01-05T08:30:53.833Z,1004.81
2023-01-05T08:31:53.945Z,1004.83
2023-01-05T08:32:53.826Z,1004.74
2023-01-05T08:33:53.833Z,1004.86
2023-01-05T08:34:55.749Z,1004.88
2023-01-05T08:35:53.776Z,1004.87
2023-01-05T08:36:53.774Z,1004.91
2023-01-05T08:37:53.792Z,1004.87
2023-01-05T08:38:53.748Z,1004.94
2023-01-05T08:39:53.740Z,1004.84
2023-01-05T08:40:53.739Z,1004.87
2023-01-05T08:41:58.844Z,1004.82
2023-01-05T08:42:53.703Z,1004.79
2023-01-05T08:43:53.695Z,1004.81
2023-01-05T08:44:53.686Z,1004.93
2023-01-05T08:45:53.693Z,1004.86
2023-01-05T08:46:53.653Z,1004.95
2023-01-05T08:47:53.641Z,1004.90
2023-01-05T08:48:53.653Z,1004.94
2023-01-05T08:49:53.620Z,1004.87
2023-01-05T08:50:53.611Z,1004.93
2023-01-05T08:51:53.603Z,1004.86
2023-01-05T08:52:53.589Z,1004.90
2023-01-05T08:53:53.613Z,1005.01
2023-01-05T08:54:53.575Z,1004.99
2023-01-05T08:55:53.555Z,1004.98
2023-01-05T08:56:53.542Z,1004.95
2023-01-05T08:57:53.530Z,1004.99
2023-01-05T08:58:53.525Z,1004.97
2023-01-05T08:59:53.512Z,1005.04
2023-01-05T09:00:53.575Z,1005.02
2023-01-05T09:01:53.685Z,1005.00
2023-01-05T09:02:53.536Z,1005.11
2023-01-05T09:03:53.463Z,1005.09
2023-01-05T09:04:53.457Z,1005.14
2023-01-05T09:05:53.445Z,1005.09
2023-01-05T09:06:53.421Z,1005.06
2023-01-05T09:07:53.419Z,1005.14
2023-01-05T09:08:53.405Z,1005.14
2023-01-05T09:09:53.446Z,1005.14
2023-01-05T09:10:53.383Z,1005.18
2023-01-05T09:11:53.376Z,1005.16
2023-01-05T09:12:53.365Z,1005.24
2023-01-05T09:13:53.339Z,1005.25
2023-01-05T09:14:53.337Z,1005.28
2023-01-05T09:15:53.327Z,1005.29
2023-01-05T09:17:09.513Z,1005.34
2023-01-05T09:17:53.361Z,1005.40
2023-01-05T09:18:53.289Z,1005.39
2023-01-05T09:19:53.274Z,1005.41
2023-01-05T09:20:53.259Z,1005.47
2023-01-05T09:21:53.252Z,1005.43
2023-01-05T09:22:53.244Z,1005.54
2023-01-05T09:23:53.232Z,1005.40
2023-01-05T09:24:53.215Z,1005.54
2023-01-05T09:25:53.236Z,1005.52
2023-01-05T09:26:53.203Z,1005.49
2023-01-05T09:27:53.193Z,1005.55
2023-01-05T09:28:53.173Z,1005.60
2023-01-05T09:29:53.157Z,1005.52
2023-01-05T09:30:53.174Z,1005.52
2023-01-05T09:31:53.160Z,1005.55
2023-01-05T09:32:53.151Z,1005.55
2023-01-05T09:33:53.112Z,1005.55
2023-01-05T09:34:53.131Z,1005.67
2023-01-05T09:35:53.092Z,1005.65
2023-01-05T09:36:53.079Z,1005.69
2023-01-05T09:37:53.069Z,1005.62
2023-01-05T09:38:53.057Z,1005.58
2023-01-05T09:39:53.052Z,1005.71
2023-01-05T09:40:53.034Z,1005.56
2023-01-05T09:41:53.147Z,1005.63
2023-01-05T09:42:53.018Z,1005.73
2023-01-05T09:43:52.998Z,1005.69
2023-01-05T09:44:58.632Z,1005.75
2023-01-05T09:45:53.001Z,1005.72
2023-01-05T09:46:52.972Z,1005.82
2023-01-05T09:47:52.963Z,1005.79
2023-01-05T09:48:52.941Z,1005.77
2023-01-05T09:49:52.929Z,1005.80
2023-01-05T09:50:52.915Z,1005.81
2023-01-05T09:51:52.914Z,1005.73
2023-01-05T09:52:52.902Z,1005.84
2023-01-05T09:53:52.891Z,1005.90
2023-01-05T09:54:52.880Z,1005.92
2023-01-05T09:55:52.870Z,1005.95
2023-01-05T09:57:09.829Z,1005.91
2023-01-05T09:57:52.961Z,1005.87
2023-01-05T09:58:52.835Z,1005.92
2023-01-05T09:59:52.831Z,1005.97
2023-01-05T10:00:52.816Z,1006.00
2023-01-05T10:01:52.904Z,1005.94
2023-01-05T10:02:52.857Z,1005.84
2023-01-05T10:04:03.465Z,1006.01
2023-01-05T10:04:52.915Z,1005.96
2023-01-05T10:05:52.812Z,1005.99
2023-01-05T10:06:52.742Z,1005.95
2023-01-05T10:07:52.741Z,1005.94
2023-01-05T10:08:52.715Z,1005.97
2023-01-05T10:09:52.706Z,1006.04
2023-01-05T10:10:52.690Z,1005.99
2023-01-05T10:11:52.688Z,1006.03
2023-01-05T10:12:52.679Z,1005.95
2023-01-05T10:13:52.780Z,1005.89
2023-01-05T10:14:52.751Z,1006.04
2023-01-05T10:15:52.718Z,1006.06
2023-01-05T10:16:57.738Z,1006.10
2023-01-05T10:17:52.610Z,1006.07
2023-01-05T10:18:52.598Z,1006.04
2023-01-05T10:19:52.598Z,1006.03
2023-01-05T10:20:52.577Z,1006.12
2023-01-05T10:21:52.564Z,1006.08
2023-01-05T10:22:52.554Z,1005.99
2023-01-05T10:23:52.543Z,1005.83
2023-01-05T10:24:52.533Z,1005.96
2023-01-05T10:25:52.560Z,1005.94
2023-01-05T10:27:23.755Z,1005.99
2023-01-05T10:27:56.676Z,1006.05
2023-01-05T10:28:52.489Z,1006.02
2023-01-05T10:29:52.595Z,1005.91
2023-01-05T10:30:52.583Z,1005.98
2023-01-05T10:31:52.462Z,1006.21
2023-01-05T10:32:52.450Z,1006.17
2023-01-05T10:33:54.797Z,1006.07
2023-01-05T10:34:52.415Z,1006.08
2023-01-05T10:36:01.789Z,1006.10
2023-01-05T10:37:09.258Z,1006.08
2023-01-05T10:37:52.391Z,1005.96
2023-01-05T10:38:52.378Z,1006.02
2023-01-05T10:39:56.314Z,1006.15
2023-01-05T10:40:52.361Z,1006.07
2023-01-05T10:41:52.332Z,1006.16
2023-01-05T10:42:52.329Z,1006.08
2023-01-05T10:43:52.317Z,1006.06
2023-01-05T10:44:52.300Z,1006.19
2023-01-05T10:46:28.618Z,1005.88
2023-01-05T10:46:53.050Z,1006.02
2023-01-05T10:47:52.301Z,1006.12
2023-01-05T10:48:52.259Z,1006.02
2023-01-05T10:49:52.247Z,1006.05
2023-01-05T10:50:52.245Z,1006.01
2023-01-05T10:51:56.481Z,1006.06
2023-01-05T10:52:52.214Z,1006.12
2023-01-05T10:53:52.204Z,1006.11
2023-01-05T10:54:52.284Z,1006.12
2023-01-05T10:55:52.189Z,1006.14
2023-01-05T10:56:52.161Z,1006.12
2023-01-05T10:57:52.157Z,1006.14
2023-01-05T10:58:52.146Z,1006.17
2023-01-05T10:59:52.159Z,1006.03
2023-01-05T11:00:52.126Z,1006.25
2023-01-05T11:01:52.358Z,1006.22
2023-01-05T11:02:52.108Z,1006.19
2023-01-05T11:04:52.117Z,1006.16
2023-01-05T11:05:52.071Z,1006.37
2023-01-05T11:06:52.056Z,1006.24
2023-01-05T11:07:52.047Z,1006.37
2023-01-05T11:08:52.039Z,1006.33
2023-01-05T11:09:52.018Z,1006.42
2023-01-05T11:10:52.024Z,1006.37
2023-01-05T11:11:51.998Z,1006.44
2023-01-05T11:12:51.980Z,1006.49
2023-01-05T11:13:51.973Z,1006.39
2023-01-05T11:14:57.875Z,1006.41
2023-01-05T11:15:52.067Z,1006.42
2023-01-05T11:16:51.952Z,1006.42
2023-01-05T11:17:52.081Z,1006.51
2023-01-05T11:18:51.912Z,1006.52
2023-01-05T11:19:51.929Z,1006.56
2023-01-05T11:20:51.914Z,1006.52
2023-01-05T11:21:56.635Z,1006.46
2023-01-05T11:22:51.880Z,1006.64
2023-01-05T11:23:51.875Z,1006.57
2023-01-05T11:24:51.861Z,1006.58
2023-01-05T11:25:51.840Z,1006.57
2023-01-05T11:26:51.822Z,1006.59
2023-01-05T11:27:58.087Z,1006.58
2023-01-05T11:28:51.802Z,1006.65
2023-01-05T11:29:51.789Z,1006.52
2023-01-05T11:30:51.828Z,1006.58
2023-01-05T11:31:51.774Z,1006.57
2023-01-05T11:32:51.777Z,1006.61
2023-01-05T11:33:51.857Z,1006.56
2023-01-05T11:34:51.739Z,1006.61
2023-01-05T11:35:51.735Z,1006.73
2023-01-05T11:36:51.715Z,1006.61
2023-01-05T11:37:51.711Z,1006.77
2023-01-05T11:38:51.696Z,1006.70
2023-01-05T11:39:51.720Z,1006.71
2023-01-05T11:40:51.679Z,1006.74
2023-01-05T11:41:51.653Z,1006.81
2023-01-05T11:42:51.647Z,1006.71
2023-01-05T11:43:51.632Z,1006.70
2023-01-05T11:44:51.618Z,1006.80
2023-01-05T11:45:51.690Z,1006.68
2023-01-05T11:46:51.703Z,1006.89
2023-01-05T11:47:51.601Z,1006.96
2023-01-05T11:48:51.576Z,1006.90
2023-01-05T11:49:58.319Z,1006.89
2023-01-05T11:50:51.569Z,1006.91
2023-01-05T11:51:51.539Z,1006.96
2023-01-05T11:52:51.541Z,1007.00
2023-01-05T11:53:51.518Z,1006.99
2023-01-05T11:54:51.561Z,1006.99
2023-01-05T11:55:51.495Z,1006.97
2023-01-05T11:56:51.500Z,1006.99
2023-01-05T11:57:57.514Z,1007.12
2023-01-05T11:58:51.499Z,1007.01
2023-01-05T11:59:51.463Z,1007.05
2023-01-05T12:00:51.510Z,1007.06
2023-01-05T12:01:51.503Z,1007.10
2023-01-05T12:02:51.490Z,1007.16
2023-01-05T12:03:56.885Z,1007.15
2023-01-05T12:04:51.403Z,1007.20
2023-01-05T12:05:51.512Z,1007.22
2023-01-05T12:06:51.383Z,1007.26